Time;durP1;ratioP1;P1;durP2;ratioP2;P2;SDS_P1;SDS_P2;PMS_P1;PMS_P2;Temp;Humidity;BMP_temperature;BMP_pressure;BME280_temperature;BME280_humidity;BME280_pressure;Samples;Min_cycle;Max_cycle;Signal;HPM_P1;HPM_P2
2022/08/10 00:01:18;;;;;;;8.00;5.13;;;15.60;99.90;;;;;;5052988;28;20483;-70
2022/08/10 00:03:45;;;;;;;8.32;5.45;;;15.60;99.90;;;;;;5052536;28;20555;-70
2022/08/10 00:06:12;;;;;;;7.88;5.50;;;15.60;99.90;;;;;;5035795;28;20137;-69
2022/08/10 00:08:39;;;;;;;12.73;5.72;;;15.60;99.90;;;;;;5035403;28;20048;-69
2022/08/10 00:11:06;;;;;;;7.47;5.50;;;15.60;99.90;;;;;;5035390;28;20060;-70
2022/08/10 00:13:33;;;;;;;10.00;5.93;;;15.60;99.90;;;;;;5035328;28;20477;-70
2022/08/10 00:16:00;;;;;;;8.85;5.57;;;15.50;99.90;;;;;;5034283;28;20053;-70
2022/08/10 00:18:28;;;;;;;11.32;6.32;;;15.50;99.90;;;;;;5053248;28;20099;-70
2022/08/10 00:20:55;;;;;;;10.52;6.35;;;15.50;99.90;;;;;;5053115;28;20106;-70
2022/08/10 00:23:22;;;;;;;9.60;6.15;;;15.50;99.90;;;;;;5052283;28;20455;-71
2022/08/10 00:25:49;;;;;;;9.93;6.72;;;15.50;99.90;;;;;;5035495;28;20441;-69
2022/08/10 00:28:16;;;;;;;10.25;6.95;;;15.50;99.90;;;;;;5034573;28;20049;-69
2022/08/10 00:30:43;;;;;;;11.40;6.70;;;15.50;99.90;;;;;;5034574;28;20061;-69
2022/08/10 00:33:10;;;;;;;8.57;6.47;;;15.50;99.90;;;;;;5035004;28;20060;-69
2022/08/10 00:35:38;;;;;;;10.50;6.70;;;15.50;99.90;;;;;;5052687;28;20049;-69
2022/08/10 00:38:05;;;;;;;10.32;6.25;;;15.40;99.90;;;;;;5052343;28;20493;-69
2022/08/10 00:40:32;;;;;;;11.95;6.97;;;15.40;99.90;;;;;;5053075;28;20382;-70
2022/08/10 00:42:58;;;;;;;11.40;6.80;;;15.40;99.90;;;;;;5034413;28;20052;-70
2022/08/10 00:45:25;;;;;;;10.45;6.88;;;15.40;99.90;;;;;;5034308;28;20060;-70
2022/08/10 00:47:53;;;;;;;11.88;7.32;;;15.40;99.90;;;;;;5035137;28;20090;-69
2022/08/10 00:50:20;;;;;;;10.27;6.50;;;15.40;99.90;;;;;;5034657;28;20607;-70
2022/08/10 00:52:49;;;;;;;12.00;7.05;;;15.30;99.90;;;;;;5034418;28;20057;-70
2022/08/10 00:55:17;;;;;;;11.07;6.93;;;15.30;99.90;;;;;;5034538;28;20095;-70
2022/08/10 00:57:44;;;;;;;11.90;6.60;;;15.30;99.90;;;;;;5052367;28;20053;-69
2022/08/10 01:00:11;;;;;;;11.27;6.95;;;15.30;99.90;;;;;;5034572;28;20056;-69
2022/08/10 01:02:39;;;;;;;16.65;9.15;;;15.30;99.90;;;;;;5034843;28;20383;-70
2022/08/10 01:05:09;;;;;;;12.10;6.97;;;15.30;99.90;;;;;;5034608;28;20053;-69
2022/08/10 01:08:07;;;;;;;12.33;7.63;;;15.20;99.90;;;;;;5051964;28;20045;-69
2022/08/10 01:10:42;;;;;;;9.82;7.18;;;15.20;99.90;;;;;;5039196;28;20338;-70
2022/08/10 01:13:16;;;;;;;9.75;7.10;;;15.20;99.90;;;;;;5033507;28;20467;-69
2022/08/10 01:15:53;;;;;;;11.27;7.70;;;15.20;99.90;;;;;;5052191;28;20455;-69
2022/08/10 01:18:28;;;;;;;11.57;8.13;;;15.10;99.90;;;;;;5034486;28;20056;-71
2022/08/10 01:21:32;;;;;;;11.98;7.82;;;15.20;99.90;;;;;;5051737;28;20501;-69
2022/08/10 01:24:15;;;;;;;10.50;7.40;;;15.10;99.90;;;;;;5032202;28;20132;-70
2022/08/10 01:26:59;;;;;;;15.02;8.13;;;15.20;99.90;;;;;;5052544;28;20057;-69
2022/08/10 01:29:47;;;;;;;11.18;8.23;;;15.20;99.90;;;;;;5056497;28;20463;-69
2022/08/10 01:32:17;;;;;;;14.02;8.10;;;15.10;99.90;;;;;;5038000;28;20071;-71
2022/08/10 01:34:51;;;;;;;13.48;7.90;;;15.10;99.90;;;;;;5055688;28;20045;-69
2022/08/10 01:37:23;;;;;;;13.40;8.70;;;15.10;99.90;;;;;;5038359;28;20053;-71
2022/08/10 01:39:55;;;;;;;12.80;8.48;;;15.10;99.90;;;;;;5037994;28;20049;-69
2022/08/10 01:42:23;;;;;;;17.00;9.00;;;15.10;99.90;;;;;;5055493;28;20060;-69
2022/08/10 01:44:56;;;;;;;13.82;9.55;;;15.10;99.90;;;;;;5055405;28;20048;-69
2022/08/10 01:50:18;;;;;;;13.13;8.07;;;15.10;99.90;;;;;;5054440;28;20045;-70
2022/08/10 01:52:48;;;;;;;13.35;8.70;;;15.10;99.90;;;;;;5054834;28;20140;-70
2022/08/10 01:55:16;;;;;;;13.68;7.88;;;15.10;99.90;;;;;;5037152;28;20508;-69
2022/08/10 01:57:45;;;;;;;13.20;8.63;;;15.10;99.90;;;;;;5055734;28;20107;-69
2022/08/10 02:00:14;;;;;;;13.38;8.48;;;15.10;99.90;;;;;;5055594;28;20052;-70
2022/08/10 02:02:43;;;;;;;15.65;8.35;;;15.10;99.90;;;;;;5055158;28;20049;-70
2022/08/10 02:05:11;;;;;;;16.85;8.30;;;14.80;99.90;;;;;;5055587;28;20059;-70
2022/08/10 02:07:40;;;;;;;12.13;8.85;;;15.10;99.90;;;;;;5055406;28;20049;-69
2022/08/10 02:10:12;;;;;;;20.73;9.05;;;15.20;99.90;;;;;;5055100;28;20449;-69
2022/08/10 02:12:43;;;;;;;14.68;9.52;;;15.10;99.90;;;;;;5055509;28;20053;-69
2022/08/10 02:15:16;;;;;;;12.38;8.93;;;15.20;99.90;;;;;;5037300;28;20055;-70
2022/08/10 02:17:48;;;;;;;15.65;8.75;;;15.10;99.90;;;;;;5037097;28;20501;-69
2022/08/10 02:20:20;;;;;;;14.35;8.68;;;15.10;99.90;;;;;;5055375;28;20422;-71
2022/08/10 02:22:50;;;;;;;13.52;8.77;;;15.10;99.90;;;;;;5054912;28;20053;-70
2022/08/10 02:25:18;;;;;;;;;;;15.10;99.90;;;;;;5055937;28;20049;-70
2022/08/10 02:27:46;;;;;;;12.02;8.27;;;15.10;99.90;;;;;;5037362;28;20422;-70
2022/08/10 02:30:14;;;;;;;11.02;8.00;;;15.10;99.90;;;;;;5036975;28;20053;-69
2022/08/10 02:32:43;;;;;;;16.38;9.02;;;15.10;99.90;;;;;;5054606;28;20049;-69
2022/08/10 02:35:12;;;;;;;12.13;8.18;;;15.10;99.90;;;;;;5036635;28;20049;-69
2022/08/10 02:37:41;;;;;;;13.93;8.15;;;15.10;99.90;;;;;;5036607;28;20060;-70
2022/08/10 02:40:10;;;;;;;12.40;8.75;;;15.10;99.90;;;;;;5036226;28;20049;-69
2022/08/10 02:42:45;;;;;;;13.88;8.30;;;15.10;99.90;;;;;;5036914;28;20044;-69
2022/08/10 02:45:16;;;;;;;11.50;8.15;;;15.10;99.90;;;;;;5054129;28;20099;-70
2022/08/10 02:47:48;;;;;;;14.50;9.00;;;15.10;99.90;;;;;;5054698;28;20588;-69
2022/08/10 02:50:20;;;;;;;13.48;8.73;;;15.10;99.90;;;;;;5054656;28;20110;-69
2022/08/10 02:52:55;;;;;;;12.55;9.07;;;15.10;99.90;;;;;;5036413;28;20053;-69
2022/08/10 02:55:30;;;;;;;15.43;9.10;;;15.10;99.90;;;;;;5036692;28;20049;-69
2022/08/10 02:58:02;;;;;;;15.77;9.48;;;15.10;99.90;;;;;;5036516;28;20444;-69
2022/08/10 03:00:31;;;;;;;12.13;8.45;;;15.10;99.90;;;;;;5036759;28;20125;-69
2022/08/10 03:03:01;;;;;;;11.55;8.32;;;15.10;99.90;;;;;;5054064;28;20052;-69
2022/08/10 03:05:29;;;;;;;12.20;8.88;;;15.10;99.90;;;;;;5036435;28;20045;-69
2022/08/10 03:08:02;;;;;;;14.75;7.95;;;15.10;99.90;;;;;;5054662;28;20045;-70
2022/08/10 03:10:32;;;;;;;12.77;8.20;;;15.10;99.90;;;;;;5053850;28;20555;-69
2022/08/10 03:13:01;;;;;;;13.20;9.05;;;15.10;99.90;;;;;;5053983;28;20456;-68
2022/08/10 03:15:32;;;;;;;11.63;8.52;;;15.10;99.90;;;;;;5036349;28;20099;-70
2022/08/10 03:18:01;;;;;;;14.48;8.90;;;15.00;99.90;;;;;;5036426;28;20099;-70
2022/08/10 03:20:30;;;;;;;17.48;10.07;;;15.00;99.90;;;;;;5053635;28;20060;-70
2022/08/10 03:22:58;;;;;;;18.23;10.65;;;15.00;99.90;;;;;;5036451;28;20512;-70
2022/08/10 03:25:26;;;;;;;16.80;9.82;;;15.00;99.90;;;;;;5053675;28;20090;-70
2022/08/10 03:27:54;;;;;;;16.17;10.65;;;15.00;99.90;;;;;;5035021;28;20061;-69
2022/08/10 03:30:21;;;;;;;12.80;9.38;;;15.00;99.90;;;;;;5035987;28;20053;-70
2022/08/10 03:32:50;;;;;;;15.05;9.82;;;15.00;99.90;;;;;;5035625;28;20539;-70
2022/08/10 03:35:17;;;;;;;19.30;10.77;;;14.90;99.90;;;;;;5053749;28;20049;-70
2022/08/10 03:37:44;;;;;;;21.48;11.30;;;15.00;99.90;;;;;;5035447;28;20044;-69
2022/08/10 03:40:11;;;;;;;15.40;10.15;;;14.90;99.90;;;;;;5053635;28;20049;-69
2022/08/10 03:42:40;;;;;;;16.42;10.63;;;14.90;99.90;;;;;;5035885;28;20063;-69
2022/08/10 03:45:09;;;;;;;13.00;7.72;;;14.90;99.90;;;;;;5024725;28;20049;-70
2022/08/10 03:47:38;;;;;;;12.15;8.63;;;15.10;99.90;;;;;;5032011;28;20057;-70
2022/08/10 03:50:09;;;;;;;13.38;8.73;;;15.60;99.90;;;;;;5034055;28;20045;-69
2022/08/10 03:52:36;;;;;;;12.52;8.55;;;15.60;99.90;;;;;;5022949;28;20055;-69
2022/08/10 03:55:04;;;;;;;18.20;8.45;;;15.60;99.90;;;;;;5031031;28;20042;-69
2022/08/10 03:57:31;;;;;;;10.82;6.13;;;15.60;99.90;;;;;;5033150;28;20048;-69
2022/08/10 03:59:58;;;;;;;13.35;8.50;;;15.90;99.90;;;;;;5014221;28;20061;-68
2022/08/10 04:02:26;;;;;;;10.52;6.75;;;16.10;99.90;;;;;;5032240;28;20124;-69
2022/08/10 04:04:53;;;;;;;12.05;8.35;;;16.20;99.90;;;;;;5033639;28;20049;-69
2022/08/10 04:07:21;;;;;;;7.80;5.50;;;16.20;99.90;;;;;;5036326;28;20053;-70
2022/08/10 04:09:48;;;;;;;10.18;7.38;;;16.20;99.90;;;;;;5030962;28;20107;-70
2022/08/10 04:12:15;;;;;;;11.23;6.45;;;16.10;99.90;;;;;;5032167;28;20103;-70
2022/08/10 04:14:42;;;;;;;11.52;6.88;;;16.20;99.90;;;;;;5030523;28;20663;-69
2022/08/10 04:17:09;;;;;;;11.02;7.30;;;16.30;99.90;;;;;;5032059;28;20057;-70
2022/08/10 04:19:41;;;;;;;10.80;6.80;;;16.30;99.90;;;;;;5014981;28;20052;-70
2022/08/10 04:22:15;;;;;;;9.98;5.05;;;16.40;99.90;;;;;;5031390;28;20489;-69
2022/08/10 04:24:46;;;;;;;10.75;5.93;;;16.50;99.90;;;;;;5030858;28;20437;-69
2022/08/10 04:27:14;;;;;;;9.82;6.78;;;16.50;99.90;;;;;;5030792;28;20489;-70
2022/08/10 04:29:41;;;;;;;12.35;6.57;;;16.80;99.90;;;;;;5012822;28;20103;-69
2022/08/10 04:32:09;;;;;;;7.53;4.72;;;16.70;99.90;;;;;;5033147;28;20100;-69
2022/08/10 04:34:40;;;;;;;9.93;6.72;;;16.70;99.90;;;;;;5014314;28;20469;-69
2022/08/10 04:37:09;;;;;;;9.25;6.07;;;16.80;99.90;;;;;;5030654;28;20041;-69
2022/08/10 04:39:37;;;;;;;10.65;6.20;;;16.90;99.90;;;;;;5013413;28;20406;-69
2022/08/10 04:42:06;;;;;;;15.65;8.18;;;17.00;99.90;;;;;;5013478;28;20049;-70
2022/08/10 04:44:33;;;;;;;10.07;6.93;;;16.80;99.90;;;;;;5014218;28;20076;-70
2022/08/10 04:47:00;;;;;;;9.30;6.35;;;16.70;99.90;;;;;;5017864;28;20282;-69
2022/08/10 04:49:27;;;;;;;8.75;6.05;;;16.60;99.90;;;;;;5035180;28;20045;-70
2022/08/10 04:51:54;;;;;;;11.68;6.55;;;16.40;99.90;;;;;;5039062;28;20049;-69
2022/08/10 04:54:21;;;;;;;12.05;6.30;;;16.40;99.90;;;;;;5015767;28;20061;-71
2022/08/10 04:56:48;;;;;;;9.27;6.50;;;16.40;99.90;;;;;;5020152;28;20061;-71
2022/08/10 04:59:16;;;;;;;12.32;7.10;;;16.30;99.90;;;;;;5013857;28;20533;-69
2022/08/10 05:01:43;;;;;;;9.57;7.05;;;16.30;99.90;;;;;;5044619;28;20796;-68
2022/08/10 05:04:10;;;;;;;11.57;7.20;;;16.20;99.90;;;;;;5044065;28;20057;-69
2022/08/10 05:06:36;;;;;;;13.23;7.95;;;16.20;99.90;;;;;;5035966;28;20067;-70
2022/08/10 05:09:03;;;;;;;10.57;7.95;;;16.20;99.90;;;;;;5017283;28;20065;-69
2022/08/10 05:11:30;;;;;;;13.43;8.18;;;16.30;99.90;;;;;;5022732;28;20408;-69
2022/08/10 05:13:57;;;;;;;12.48;7.28;;;16.30;99.90;;;;;;5055869;28;20095;-69
2022/08/10 05:16:25;;;;;;;13.82;7.70;;;16.30;99.90;;;;;;5042498;28;20041;-69
2022/08/10 05:18:52;;;;;;;12.18;7.22;;;16.30;99.90;;;;;;5024518;28;20053;-69
2022/08/10 05:21:19;;;;;;;11.98;8.27;;;16.40;99.90;;;;;;5016530;28;20505;-70
2022/08/10 05:23:46;;;;;;;11.40;7.43;;;16.40;99.90;;;;;;5038867;28;20053;-70
2022/08/10 05:26:13;;;;;;;14.50;6.90;;;16.50;99.90;;;;;;5017022;28;20099;-70
2022/08/10 05:28:40;;;;;;;10.75;7.75;;;16.60;99.90;;;;;;5034759;28;20515;-71
2022/08/10 05:31:07;;;;;;;10.75;7.63;;;16.60;99.90;;;;;;5044825;28;20057;-70
2022/08/10 05:33:35;;;;;;;12.75;8.15;;;16.80;99.90;;;;;;5049668;28;20053;-69
2022/08/10 05:36:03;;;;;;;8.90;6.90;;;16.80;99.90;;;;;;5015800;28;20056;-70
2022/08/10 05:38:31;;;;;;;9.63;6.53;;;16.90;99.90;;;;;;5024246;28;20091;-69
2022/08/10 05:40:59;;;;;;;12.77;7.10;;;17.00;99.90;;;;;;5033628;28;20065;-69
2022/08/10 05:43:27;;;;;;;10.57;7.32;;;17.10;99.90;;;;;;5033618;28;20050;-70
2022/08/10 05:45:54;;;;;;;10.70;7.60;;;17.30;99.90;;;;;;5022737;28;20370;-69
2022/08/10 05:48:20;;;;;;;11.07;7.13;;;17.40;99.90;;;;;;5014858;28;20485;-69
2022/08/10 05:50:49;;;;;;;12.35;7.03;;;17.50;99.90;;;;;;5033310;28;20095;-70
2022/08/10 05:53:16;;;;;;;11.45;7.00;;;17.70;99.90;;;;;;5045061;28;20045;-70
2022/08/10 05:55:43;;;;;;;10.73;7.00;;;17.90;99.90;;;;;;5035744;28;20057;-70
2022/08/10 05:58:10;;;;;;;10.10;5.90;;;18.00;99.90;;;;;;5018500;28;20477;-70
2022/08/10 06:00:40;;;;;;;8.10;5.85;;;18.20;99.90;;;;;;5015545;28;20045;-69
2022/08/10 06:03:08;;;;;;;9.60;6.10;;;18.40;99.90;;;;;;5015114;28;20049;-70
2022/08/10 06:05:39;;;;;;;8.85;6.30;;;18.50;99.90;;;;;;5014880;28;20482;-69
2022/08/10 06:08:13;;;;;;;9.20;5.65;;;18.60;99.90;;;;;;5014019;28;20045;-70
2022/08/10 06:10:41;;;;;;;11.60;5.88;;;18.80;99.90;;;;;;5032566;28;20513;-70
2022/08/10 06:15:56;;;;;;;9.73;5.22;;;19.10;99.90;;;;;;5032252;28;20042;-70
2022/08/10 06:18:24;;;;;;;10.38;5.38;;;19.20;99.90;;;;;;5015223;28;20049;-69
2022/08/10 06:20:52;;;;;;;9.73;5.13;;;19.50;99.90;;;;;;5032628;28;20045;-71
2022/08/10 06:23:21;;;;;;;9.27;5.10;;;19.70;99.90;;;;;;5038705;28;20500;-69
2022/08/10 06:25:48;;;;;;;6.25;5.07;;;19.80;99.90;;;;;;5019610;28;20489;-69
2022/08/10 06:28:17;;;;;;;9.43;5.47;;;20.00;99.90;;;;;;5022063;28;20048;-69
2022/08/10 06:30:45;;;;;;;7.43;5.03;;;20.20;99.90;;;;;;4992012;28;1075690;-70
2022/08/10 06:33:13;;;;;;;7.30;4.82;;;20.40;99.90;;;;;;5042531;28;20494;-69
2022/08/10 06:35:42;;;;;;;7.50;4.35;;;20.70;99.90;;;;;;5023773;28;20045;-70
2022/08/10 06:38:11;;;;;;;6.47;4.22;;;21.10;99.90;;;;;;5016095;28;20107;-70
2022/08/10 06:40:43;;;;;;;6.35;3.97;;;21.50;99.90;;;;;;5037508;28;20053;-71
2022/08/10 06:43:14;;;;;;;6.57;4.53;;;21.90;99.90;;;;;;5033960;28;20390;-71
2022/08/10 06:45:45;;;;;;;7.82;3.90;;;22.40;99.90;;;;;;5034068;28;20049;-70
2022/08/10 06:48:20;;;;;;;5.20;3.78;;;22.70;99.90;;;;;;5014938;28;20489;-69
2022/08/10 06:50:51;;;;;;;7.03;3.45;;;23.20;99.90;;;;;;5014858;28;20053;-70
2022/08/10 06:53:20;;;;;;;8.07;3.90;;;23.70;99.90;;;;;;5015225;28;20045;-70
2022/08/10 06:55:53;;;;;;;6.70;3.63;;;24.20;99.90;;;;;;5035814;28;20045;-70
2022/08/10 06:58:22;;;;;;;6.22;3.33;;;24.60;99.90;;;;;;5053251;28;20103;-70
2022/08/10 07:00:52;;;;;;;4.95;3.08;;;25.00;99.90;;;;;;5016022;28;20072;-70
2022/08/10 07:03:21;;;;;;;;;;;25.30;99.90;;;;;;5016532;28;20057;-70
2022/08/10 07:23:59;;;;;;;4.38;2.00;;;27.90;96.10;;;;;;4962470;28;20070;-61
2022/08/10 07:26:28;;;;;;;4.55;2.40;;;28.10;96.80;;;;;;4973903;28;20086;-61
2022/08/10 07:28:57;;;;;;;4.13;2.38;;;28.50;96.10;;;;;;4972416;28;20046;-60
2022/08/10 07:31:25;;;;;;;5.60;2.17;;;28.70;95.50;;;;;;4973340;28;20058;-60
2022/08/10 07:33:58;;;;;;;4.18;2.05;;;28.90;94.80;;;;;;4972320;28;20405;-60
2022/08/10 07:36:27;;;;;;;4.10;1.88;;;28.90;93.80;;;;;;4973255;28;20066;-60
2022/08/10 07:39:00;;;;;;;5.10;1.85;;;28.80;93.80;;;;;;4972083;28;20498;-60
2022/08/10 07:41:30;;;;;;;3.78;1.73;;;28.80;93.20;;;;;;4973490;28;20058;-60
2022/08/10 07:44:01;;;;;;;3.92;1.88;;;28.90;93.70;;;;;;4972906;28;20050;-60
2022/08/10 07:46:30;;;;;;;4.57;1.75;;;29.10;93.20;;;;;;4972474;28;20090;-60
2022/08/10 07:49:02;;;;;;;4.17;2.10;;;29.40;92.90;;;;;;4955623;28;20427;-60
2022/08/10 07:51:31;;;;;;;3.78;1.80;;;29.80;92.30;;;;;;4956243;28;20295;-60
2022/08/10 07:54:04;;;;;;;6.05;2.05;;;30.10;91.00;;;;;;4954491;28;20129;-60
2022/08/10 07:56:34;;;;;;;5.30;1.80;;;30.10;90.80;;;;;;4955500;28;20042;-61
2022/08/10 07:59:02;;;;;;;;;;;30.30;90.50;;;;;;4973546;28;20494;-61
2022/08/10 08:01:34;;;;;;;6.57;1.98;;;30.20;89.70;;;;;;4972316;28;19973;-60
2022/08/10 08:04:01;;;;;;;3.67;1.60;;;30.40;90.20;;;;;;4955001;28;20055;-61
2022/08/10 08:06:31;;;;;;;4.55;1.50;;;30.60;90.30;;;;;;4972795;28;20055;-61
2022/08/10 08:08:59;;;;;;;4.47;1.70;;;30.90;89.70;;;;;;4952997;28;20093;-61
2022/08/10 08:11:28;;;;;;;5.22;1.85;;;31.00;88.90;;;;;;4972662;28;20482;-62
2022/08/10 08:13:56;;;;;;;4.20;1.70;;;31.00;88.30;;;;;;4971301;28;20098;-60
2022/08/10 08:16:24;;;;;;;5.55;1.60;;;31.10;88.70;;;;;;4972794;28;20125;-60
2022/08/10 08:18:53;;;;;;;5.22;1.55;;;31.20;87.10;;;;;;4971496;28;20137;-61
2022/08/10 08:21:20;;;;;;;5.00;1.70;;;31.60;84.60;;;;;;4970388;28;20134;-60
2022/08/10 08:23:49;;;;;;;3.92;1.60;;;31.80;86.10;;;;;;4972341;28;20414;-60
2022/08/10 08:26:18;;;;;;;2.95;1.30;;;31.90;84.40;;;;;;4973274;28;20039;-61
2022/08/10 08:28:47;;;;;;;2.72;1.40;;;32.00;84.00;;;;;;4972372;28;20082;-61
2022/08/10 08:31:15;;;;;;;5.88;1.70;;;32.10;84.20;;;;;;4973687;28;20089;-61
2022/08/10 08:33:45;;;;;;;4.88;1.65;;;31.90;83.00;;;;;;4974466;28;20418;-59
2022/08/10 08:36:15;;;;;;;5.68;1.30;;;32.30;83.10;;;;;;4943502;28;20082;-60
2022/08/10 08:38:42;;;;;;;3.70;1.38;;;32.50;81.80;;;;;;4973772;28;20055;-61
2022/08/10 08:41:30;;;;;;;3.58;1.73;;;32.50;80.90;;;;;;4956386;28;20089;-61
2022/08/10 08:44:06;;;;;;;3.63;1.70;;;32.90;79.50;;;;;;4972732;28;20086;-61
2022/08/10 08:46:56;;;;;;;7.57;2.05;;;32.70;77.90;;;;;;4973864;28;20101;-60
2022/08/10 08:49:48;;;;;;;5.47;1.45;;;32.70;77.50;;;;;;4956014;28;20059;-61
2022/08/10 08:52:26;;;;;;;3.28;1.13;;;32.80;77.40;;;;;;4973920;28;20106;-61
2022/08/10 08:55:02;;;;;;;4.07;1.33;;;33.00;78.30;;;;;;4956686;28;20083;-61
2022/08/10 08:57:43;;;;;;;8.60;1.75;;;33.00;77.30;;;;;;4955777;28;20113;-61
2022/08/10 09:00:19;;;;;;;5.75;1.50;;;33.40;76.50;;;;;;4957064;28;20105;-61
2022/08/10 09:03:18;;;;;;;3.08;1.52;;;33.40;75.40;;;;;;4973748;28;20101;-61
2022/08/10 09:05:54;;;;;;;4.70;1.75;;;33.70;74.00;;;;;;4971474;28;20086;-60
2022/08/10 09:08:43;;;;;;;3.42;1.42;;;33.70;74.40;;;;;;4973947;28;20051;-61
2022/08/10 09:11:28;;;;;;;3.38;1.48;;;33.70;74.00;;;;;;4972656;28;20101;-60
2022/08/10 09:14:01;;;;;;;6.68;1.60;;;33.70;75.00;;;;;;4973854;28;20078;-60
2022/08/10 09:16:34;;;;;;;7.82;1.40;;;33.70;74.00;;;;;;4973681;28;20051;-60
2022/08/10 09:19:08;;;;;;;3.35;1.23;;;33.70;74.50;;;;;;4973150;28;20078;-61
2022/08/10 09:21:43;;;;;;;3.53;1.60;;;33.70;73.90;;;;;;4974135;28;20093;-60
2022/08/10 09:24:16;;;;;;;4.47;1.60;;;33.90;73.10;;;;;;4992518;28;20054;-60
2022/08/10 09:26:51;;;;;;;5.97;1.83;;;33.40;71.90;;;;;;4992895;28;20493;-60
2022/08/10 09:29:24;;;;;;;5.30;1.65;;;33.50;73.00;;;;;;4993228;28;20092;-60
2022/08/10 09:32:03;;;;;;;6.45;1.55;;;33.70;73.80;;;;;;4974671;28;20078;-61
2022/08/10 09:34:36;;;;;;;5.90;1.70;;;34.20;72.90;;;;;;4992754;28;20050;-61
2022/08/10 09:37:12;;;;;;;5.78;1.80;;;34.20;72.70;;;;;;4956500;28;20089;-61
2022/08/10 09:39:46;;;;;;;3.83;1.60;;;34.40;70.20;;;;;;4962557;28;20138;-61
2022/08/10 09:42:18;;;;;;;2.63;1.08;;;34.30;70.90;;;;;;4975960;28;20085;-61
2022/08/10 09:44:52;;;;;;;5.30;1.40;;;34.60;70.30;;;;;;4972348;28;20485;-62
2022/08/10 09:47:32;;;;;;;5.53;1.95;;;34.50;70.00;;;;;;4972159;28;20532;-61
2022/08/10 09:50:22;;;;;;;4.35;1.50;;;34.60;69.30;;;;;;4982044;28;20085;-62
2022/08/10 09:53:01;;;;;;;3.53;1.40;;;34.90;68.30;;;;;;4995152;28;20093;-61
2022/08/10 09:55:42;;;;;;;;;;;34.40;68.80;;;;;;4979340;28;20134;-60
2022/08/10 09:58:25;;;;;;;3.67;1.27;;;34.30;68.10;;;;;;4996614;28;19957;-61
2022/08/10 10:01:00;;;;;;;4.63;1.17;;;34.40;68.70;;;;;;4995393;28;20051;-61
2022/08/10 10:03:35;;;;;;;6.15;1.40;;;34.30;68.40;;;;;;4996284;28;20536;-61
2022/08/10 10:06:08;;;;;;;3.30;1.40;;;34.40;68.00;;;;;;4996043;28;20074;-62
2022/08/10 10:08:43;;;;;;;3.45;1.60;;;34.70;67.60;;;;;;4995287;28;20055;-62
2022/08/10 10:11:16;;;;;;;3.90;1.33;;;35.10;67.50;;;;;;4978340;28;20058;-62
2022/08/10 10:13:55;;;;;;;2.83;1.27;;;35.10;67.60;;;;;;4995204;28;20058;-62
2022/08/10 10:16:52;;;;;;;4.20;1.20;;;35.20;67.20;;;;;;4996351;28;20054;-62
2022/08/10 10:19:34;;;;;;;7.13;1.08;;;35.50;66.50;;;;;;4978740;28;20054;-61
2022/08/10 10:22:16;;;;;;;3.90;1.38;;;35.30;67.30;;;;;;4993603;28;20454;-61
2022/08/10 10:24:49;;;;;;;5.05;1.20;;;35.50;66.70;;;;;;4996035;28;20054;-61
2022/08/10 10:27:26;;;;;;;5.57;1.55;;;35.50;66.60;;;;;;4993047;28;20494;-60
2022/08/10 10:29:59;;;;;;;3.78;1.20;;;35.50;66.60;;;;;;4992283;28;20438;-60
2022/08/10 10:32:34;;;;;;;3.63;1.40;;;35.30;65.90;;;;;;4967692;28;20140;-61
2022/08/10 10:35:14;;;;;;;3.50;1.10;;;35.30;66.80;;;;;;4971688;28;20054;-61
2022/08/10 10:37:44;;;;;;;4.68;1.70;;;35.50;66.60;;;;;;4995557;28;20046;-61
2022/08/10 10:40:12;;;;;;;3.33;0.88;;;35.30;66.40;;;;;;4995325;28;20046;-61
2022/08/10 10:42:49;;;;;;;5.53;1.30;;;35.60;66.00;;;;;;4994005;28;20050;-60
2022/08/10 10:45:19;;;;;;;3.58;1.15;;;35.70;66.50;;;;;;4979144;28;20505;-61
2022/08/10 10:48:02;;;;;;;3.05;0.90;;;35.90;66.30;;;;;;4957394;28;20450;-60
2022/08/10 10:50:37;;;;;;;4.10;1.35;;;35.70;63.70;;;;;;4975410;28;20124;-61
2022/08/10 10:53:12;;;;;;;2.22;0.95;;;36.00;65.50;;;;;;4976749;28;20576;-60
2022/08/10 10:55:47;;;;;;;2.80;0.93;;;36.30;64.40;;;;;;4993028;28;20085;-62
2022/08/10 10:58:20;;;;;;;2.72;0.90;;;36.20;64.30;;;;;;4988246;28;20046;-61
2022/08/10 11:00:55;;;;;;;3.97;1.20;;;36.30;64.50;;;;;;4993950;28;20129;-60
2022/08/10 11:03:34;;;;;;;4.70;1.15;;;36.40;64.10;;;;;;4977082;28;20081;-61
2022/08/10 11:06:07;;;;;;;;;;;36.50;63.50;;;;;;4995901;28;20047;-61
2022/08/10 11:08:38;;;;;;;4.80;1.13;;;36.30;62.70;;;;;;4978138;28;20004;-61
2022/08/10 11:11:10;;;;;;;3.45;0.80;;;36.30;63.70;;;;;;4994360;28;20112;-61
2022/08/10 11:13:44;;;;;;;2.60;0.80;;;36.20;62.10;;;;;;4995210;28;20105;-61
2022/08/10 11:16:16;;;;;;;4.35;0.75;;;36.20;62.80;;;;;;4994795;28;20097;-60
2022/08/10 11:18:58;;;;;;;3.70;0.98;;;36.40;63.30;;;;;;4994611;28;20065;-61
2022/08/10 11:21:40;;;;;;;2.72;0.90;;;36.60;62.50;;;;;;4995133;28;20100;-61
2022/08/10 11:24:13;;;;;;;1.65;0.80;;;36.60;60.50;;;;;;4994030;28;20410;-61
2022/08/10 11:26:47;;;;;;;2.45;0.77;;;36.60;61.70;;;;;;4994838;28;20105;-61
2022/08/10 11:29:19;;;;;;;2.42;0.90;;;36.90;62.50;;;;;;4994898;28;20042;-61
2022/08/10 11:31:53;;;;;;;2.25;0.93;;;36.80;61.10;;;;;;4994190;28;20082;-61
2022/08/10 11:34:30;;;;;;;3.03;0.70;;;36.90;60.70;;;;;;4977595;28;20466;-61
2022/08/10 11:37:09;;;;;;;2.25;0.90;;;36.50;59.90;;;;;;4977121;28;20493;-61
2022/08/10 11:39:42;;;;;;;4.93;0.90;;;36.50;59.10;;;;;;4994192;28;20082;-61
2022/08/10 11:42:20;;;;;;;3.17;1.00;;;36.40;60.00;;;;;;4977224;28;20092;-60
2022/08/10 11:44:53;;;;;;;2.08;0.90;;;36.50;61.70;;;;;;4980339;28;20050;-62
2022/08/10 11:47:27;;;;;;;1.77;0.73;;;36.80;61.00;;;;;;4989664;28;20453;-61
2022/08/10 11:49:57;;;;;;;3.33;0.90;;;37.00;61.00;;;;;;4977161;28;20112;-61
2022/08/10 11:52:36;;;;;;;1.75;0.73;;;36.90;60.90;;;;;;4992701;28;20050;-61
2022/08/10 11:55:11;;;;;;;3.25;0.80;;;36.90;59.50;;;;;;4966954;28;20054;-61
2022/08/10 11:57:38;;;;;;;3.22;1.00;;;36.90;60.20;;;;;;4994095;28;20042;-61
2022/08/10 12:00:06;;;;;;;2.03;0.80;;;37.00;61.10;;;;;;4976123;28;20086;-61
2022/08/10 12:02:39;;;;;;;2.97;0.90;;;36.50;61.00;;;;;;4994139;28;20137;-61
2022/08/10 12:05:08;;;;;;;4.72;1.10;;;36.70;60.80;;;;;;4993979;28;20097;-61
2022/08/10 12:07:41;;;;;;;5.28;0.98;;;36.80;61.80;;;;;;4980899;28;20526;-61
2022/08/10 12:10:11;;;;;;;2.38;0.80;;;36.90;61.20;;;;;;4975572;28;20149;-61
2022/08/10 12:12:46;;;;;;;1.63;0.75;;;36.90;61.20;;;;;;4963493;28;20090;-60
2022/08/10 12:15:21;;;;;;;2.05;0.80;;;37.00;60.40;;;;;;4985336;28;20453;-61
2022/08/10 12:17:52;;;;;;;2.47;0.77;;;36.90;60.30;;;;;;4985699;28;20128;-61
2022/08/10 12:20:28;;;;;;;1.77;0.85;;;36.90;61.30;;;;;;4983798;28;20078;-61
2022/08/10 12:22:59;;;;;;;2.35;0.80;;;36.60;59.90;;;;;;4979500;28;20090;-61
2022/08/10 12:25:35;;;;;;;2.60;0.88;;;36.70;60.40;;;;;;4968458;28;20075;-61
2022/08/10 12:28:10;;;;;;;2.78;1.17;;;36.60;59.70;;;;;;4966485;28;20546;-62
2022/08/10 12:30:46;;;;;;;2.50;0.70;;;36.70;59.50;;;;;;4968397;28;20047;-60
2022/08/10 12:33:20;;;;;;;3.72;0.80;;;36.90;60.20;;;;;;4964991;28;20128;-61
2022/08/10 12:35:52;;;;;;;5.10;0.98;;;36.70;59.10;;;;;;4969134;28;20089;-61
2022/08/10 12:38:27;;;;;;;1.60;0.88;;;36.90;59.30;;;;;;4968223;28;20039;-61
2022/08/10 12:40:59;;;;;;;2.00;0.70;;;37.20;58.80;;;;;;4962834;28;20110;-61
2022/08/10 12:43:32;;;;;;;2.88;1.10;;;37.30;59.40;;;;;;4951670;28;20482;-60
2022/08/10 12:46:06;;;;;;;1.83;0.70;;;37.40;59.50;;;;;;4970903;28;20047;-60
2022/08/10 12:48:39;;;;;;;4.25;0.85;;;37.30;59.30;;;;;;4966558;28;20114;-61
2022/08/10 12:51:14;;;;;;;2.20;1.00;;;36.90;59.20;;;;;;4967805;28;20113;-61
2022/08/10 12:53:49;;;;;;;2.15;0.85;;;37.30;59.20;;;;;;4946171;28;20063;-60
2022/08/10 12:56:23;;;;;;;2.03;0.93;;;37.00;59.10;;;;;;4944332;28;20137;-60
2022/08/10 12:58:50;;;;;;;1.63;0.80;;;37.50;59.50;;;;;;4960649;28;20047;-61
2022/08/10 13:01:18;;;;;;;2.63;0.80;;;37.70;58.70;;;;;;4952713;28;20054;-61
2022/08/10 13:03:47;;;;;;;2.43;0.90;;;37.60;58.50;;;;;;4965783;28;20091;-61
2022/08/10 13:06:16;;;;;;;5.03;0.95;;;37.40;58.10;;;;;;4968056;28;20309;-62
2022/08/10 13:11:31;;;;;;;2.83;0.75;;;37.60;58.20;;;;;;4951126;28;20058;-61
2022/08/10 13:14:03;;;;;;;1.45;0.68;;;38.00;57.30;;;;;;4967546;28;20046;-62
2022/08/10 13:16:31;;;;;;;1.67;0.70;;;38.00;57.10;;;;;;4949781;28;20549;-61
2022/08/10 13:19:01;;;;;;;2.13;0.90;;;37.60;57.30;;;;;;4966466;28;20134;-61
2022/08/10 13:21:32;;;;;;;3.63;0.90;;;37.60;57.70;;;;;;4966833;28;20569;-61
2022/08/10 13:24:07;;;;;;;3.67;0.98;;;37.60;57.90;;;;;;4965988;28;20055;-61
2022/08/10 13:26:39;;;;;;;4.93;0.90;;;37.60;57.70;;;;;;4962939;28;20106;-61
2022/08/10 13:29:12;;;;;;;2.72;1.00;;;37.40;57.60;;;;;;4971757;28;20509;-61
2022/08/10 13:31:44;;;;;;;2.92;0.93;;;37.30;57.60;;;;;;4966977;28;20105;-61